createdAt,value
2022-10-16T00:01:48.235Z,11.30
2022-10-16T00:06:55.221Z,11.30
2022-10-16T00:12:02.508Z,11.20
2022-10-16T00:17:09.294Z,11.20
2022-10-16T00:22:16.283Z,11.20
2022-10-16T00:27:23.093Z,11.30
2022-10-16T00:32:30.124Z,11.20
2022-10-16T00:37:37.154Z,11.20
2022-10-16T00:42:44.248Z,11.20
2022-10-16T00:47:52.753Z,11.30
2022-10-16T00:53:01.943Z,11.30
2022-10-16T00:58:08.971Z,11.30
2022-10-16T01:03:39.863Z,11.20
2022-10-16T01:09:27.302Z,11.20
2022-10-16T01:15:08.494Z,11.40
2022-10-16T01:20:39.485Z,11.60
2022-10-16T01:26:27.969Z,11.50
2022-10-16T01:31:38.661Z,11.50
2022-10-16T01:37:00.793Z,11.30
2022-10-16T01:42:18.119Z,11.40
2022-10-16T01:47:28.135Z,11.30
2022-10-16T01:52:38.966Z,11.30
2022-10-16T01:57:48.718Z,11.10
2022-10-16T02:02:57.273Z,11.10
2022-10-16T02:08:05.626Z,11.20
2022-10-16T02:13:28.738Z,11.30
2022-10-16T02:18:35.484Z,11.20
2022-10-16T02:23:46.678Z,11.10
2022-10-16T02:28:57.311Z,11.00
2022-10-16T02:34:06.472Z,11.10
2022-10-16T02:39:13.647Z,11.30
2022-10-16T02:44:20.426Z,11.50
2022-10-16T02:49:27.124Z,11.40
2022-10-16T02:54:33.829Z,11.40
2022-10-16T02:59:40.597Z,11.20
2022-10-16T03:04:47.714Z,11.20
2022-10-16T03:09:54.575Z,11.30
2022-10-16T03:15:02.210Z,11.40
2022-10-16T03:20:10.103Z,11.40
2022-10-16T03:25:17.154Z,11.40
2022-10-16T03:30:23.938Z,11.50
2022-10-16T03:35:31.399Z,11.40
2022-10-16T03:40:38.667Z,11.40
2022-10-16T03:45:45.723Z,11.20
2022-10-16T03:50:53.213Z,11.20
2022-10-16T03:56:00.424Z,11.10
2022-10-16T04:01:07.475Z,11.10
2022-10-16T04:06:14.588Z,11.30
2022-10-16T04:11:21.363Z,11.20
2022-10-16T04:16:28.294Z,11.20
2022-10-16T04:21:35.110Z,11.30
2022-10-16T04:26:41.972Z,11.20
2022-10-16T04:31:49.936Z,11.20
2022-10-16T04:36:57.006Z,11.20
2022-10-16T04:42:04.114Z,11.20
2022-10-16T04:47:11.113Z,11.30
2022-10-16T04:52:18.595Z,11.30
2022-10-16T04:57:25.766Z,11.40
2022-10-16T05:02:33.347Z,11.30
2022-10-16T05:07:40.658Z,11.40
2022-10-16T05:12:48.306Z,11.20
2022-10-16T05:17:58.652Z,11.20
2022-10-16T05:23:05.430Z,11.30
2022-10-16T05:28:12.652Z,11.50
2022-10-16T05:33:21.317Z,11.30
2022-10-16T05:38:28.856Z,11.30
2022-10-16T05:43:36.297Z,11.30
2022-10-16T05:48:43.548Z,11.30
2022-10-16T05:53:50.731Z,11.30
2022-10-16T05:58:57.721Z,11.30
2022-10-16T06:04:05.555Z,11.20
2022-10-16T06:09:13.403Z,11.30
2022-10-16T06:14:20.346Z,11.20
2022-10-16T06:19:27.306Z,11.10
2022-10-16T06:24:34.592Z,11.20
2022-10-16T06:29:41.961Z,11.20
2022-10-16T06:34:48.712Z,11.20
2022-10-16T06:39:55.652Z,11.30
2022-10-16T06:45:02.942Z,11.30
2022-10-16T06:50:10.731Z,11.40
2022-10-16T06:55:18.433Z,11.40
2022-10-16T07:05:32.240Z,11.60
2022-10-16T07:10:39.142Z,11.60
2022-10-16T07:15:45.876Z,11.70
2022-10-16T07:20:52.686Z,11.70
2022-10-16T07:25:59.476Z,11.80
2022-10-16T07:31:14.772Z,11.80
2022-10-16T07:36:23.307Z,11.90
2022-10-16T07:41:30.499Z,12.00
2022-10-16T07:46:38.676Z,12.10
2022-10-16T07:51:45.551Z,12.20
2022-10-16T07:56:52.486Z,12.20
2022-10-16T08:01:59.365Z,12.20
2022-10-16T08:07:06.198Z,12.20
2022-10-16T08:12:13.151Z,12.20
2022-10-16T08:17:20.035Z,12.40
2022-10-16T08:22:26.821Z,12.60
2022-10-16T08:27:37.470Z,12.80
2022-10-16T08:32:44.426Z,13.10
2022-10-16T08:37:51.165Z,13.40
2022-10-16T08:43:28.111Z,13.60
2022-10-16T08:48:42.325Z,13.90
2022-10-16T08:54:05.133Z,14.40
2022-10-16T08:59:13.940Z,14.30
2022-10-16T09:04:46.130Z,14.40
2022-10-16T09:10:14.790Z,14.20
2022-10-16T09:15:34.617Z,14.30
2022-10-16T09:21:04.500Z,14.30
2022-10-16T09:26:15.436Z,14.20
2022-10-16T09:31:25.111Z,14.10
2022-10-16T09:36:38.934Z,14.10
2022-10-16T09:41:46.621Z,14.30
2022-10-16T09:47:04.262Z,14.60
2022-10-16T09:52:18.815Z,14.90
2022-10-16T09:57:27.515Z,15.00
2022-10-16T10:02:39.721Z,15.40
2022-10-16T10:07:48.069Z,15.60
2022-10-16T10:12:55.571Z,15.90
2022-10-16T10:18:03.972Z,16.30
2022-10-16T10:23:25.625Z,16.00
2022-10-16T10:28:48.661Z,16.20
2022-10-16T10:34:37.764Z,16.10
2022-10-16T10:39:54.880Z,15.90
2022-10-16T10:45:11.987Z,16.50
2022-10-16T10:50:44.241Z,16.60
2022-10-16T10:56:29.780Z,16.60
2022-10-16T11:02:08.561Z,16.80
2022-10-16T11:07:23.002Z,16.70
2022-10-16T11:12:40.064Z,16.90
2022-10-16T11:18:09.654Z,16.70
2022-10-16T11:23:32.444Z,16.80
2022-10-16T11:28:47.586Z,16.70
2022-10-16T11:34:17.611Z,16.90
2022-10-16T11:39:34.110Z,16.80
2022-10-16T11:45:07.880Z,16.70
2022-10-16T11:50:57.868Z,16.70
2022-10-16T11:56:05.010Z,16.50
2022-10-16T12:01:21.413Z,16.60
2022-10-16T12:06:38.485Z,17.60
2022-10-16T12:11:45.556Z,17.50
2022-10-16T12:17:04.173Z,17.30
2022-10-16T12:22:19.505Z,17.30
2022-10-16T12:27:37.148Z,17.20
2022-10-16T12:32:47.913Z,17.60
2022-10-16T12:37:53.806Z,18.00
2022-10-16T12:43:01.162Z,18.00
2022-10-16T12:48:29.325Z,18.50
2022-10-16T12:53:33.482Z,18.50
2022-10-16T12:59:02.797Z,18.30
2022-10-16T13:04:22.763Z,18.10
2022-10-16T13:09:43.207Z,18.00
2022-10-16T13:15:21.326Z,18.20
2022-10-16T13:20:47.410Z,17.80
2022-10-16T13:26:13.355Z,17.50
2022-10-16T13:31:26.700Z,17.40
2022-10-16T13:36:40.663Z,17.20
2022-10-16T13:41:49.150Z,17.20
2022-10-16T13:47:04.744Z,17.40
2022-10-16T13:52:21.790Z,17.30
2022-10-16T13:57:29.116Z,17.30
2022-10-16T14:02:40.344Z,17.10
2022-10-16T14:07:51.235Z,16.90
2022-10-16T14:13:05.313Z,16.90
2022-10-16T14:18:22.336Z,16.90
2022-10-16T14:23:40.974Z,16.70
2022-10-16T14:28:50.039Z,17.10
2022-10-16T14:33:58.186Z,16.90
2022-10-16T14:39:12.367Z,17.00
2022-10-16T14:44:22.046Z,16.90
2022-10-16T14:49:29.966Z,16.90
2022-10-16T14:54:37.071Z,16.60
2022-10-16T14:59:48.530Z,16.90
2022-10-16T15:04:55.765Z,16.80
2022-10-16T15:10:02.860Z,16.60
2022-10-16T15:15:40.852Z,16.40
2022-10-16T15:20:49.800Z,16.20
2022-10-16T15:25:59.216Z,16.30
2022-10-16T15:31:07.552Z,16.20
2022-10-16T15:36:14.736Z,16.10
2022-10-16T15:41:21.797Z,15.90
2022-10-16T15:46:30.478Z,15.80
2022-10-16T15:51:40.369Z,15.70
2022-10-16T15:56:47.426Z,15.60
2022-10-16T16:01:54.337Z,15.40
2022-10-16T16:07:02.493Z,15.20
2022-10-16T16:12:09.298Z,15.10
2022-10-16T16:17:16.521Z,15.20
2022-10-16T16:22:23.417Z,15.10
2022-10-16T16:27:31.310Z,15.00
2022-10-16T16:32:38.894Z,14.90
2022-10-16T16:37:45.847Z,14.70
2022-10-16T16:42:54.406Z,14.60
2022-10-16T16:48:01.478Z,14.60
2022-10-16T16:53:08.952Z,14.50
2022-10-16T16:58:16.336Z,14.40
2022-10-16T17:03:23.329Z,14.30
2022-10-16T17:08:31.467Z,14.30
2022-10-16T17:13:38.948Z,14.30
2022-10-16T17:18:46.078Z,14.20
2022-10-16T17:23:54.704Z,14.20
2022-10-16T17:29:04.056Z,14.20
2022-10-16T17:34:13.051Z,14.20
2022-10-16T17:39:20.710Z,14.10
2022-10-16T17:44:27.556Z,14.20
2022-10-16T17:49:34.399Z,14.10
2022-10-16T17:54:41.674Z,14.00
2022-10-16T17:59:48.646Z,13.90
2022-10-16T18:04:56.073Z,13.90
2022-10-16T18:10:12.370Z,13.70
2022-10-16T18:15:13.468Z,13.60
2022-10-16T18:20:21.130Z,13.60
2022-10-16T18:25:28.083Z,13.60
2022-10-16T18:30:34.793Z,13.60
2022-10-16T18:35:42.109Z,13.60
2022-10-16T18:40:49.028Z,13.40
2022-10-16T18:46:09.038Z,13.40
2022-10-16T18:51:28.633Z,13.40
2022-10-16T18:56:35.608Z,13.50
2022-10-16T19:01:43.997Z,13.40
2022-10-16T19:06:54.510Z,13.30
2022-10-16T19:12:02.997Z,13.30
2022-10-16T19:17:10.116Z,13.20
2022-10-16T19:22:18.577Z,13.10
2022-10-16T19:27:25.495Z,13.20
2022-10-16T19:32:33.980Z,13.20
2022-10-16T19:37:41.766Z,13.10
2022-10-16T19:42:50.939Z,13.00
2022-10-16T19:47:58.183Z,12.90
2022-10-16T19:53:05.357Z,12.90
2022-10-16T19:58:12.437Z,12.90
2022-10-16T20:03:20.701Z,12.90
2022-10-16T20:08:28.166Z,13.00
2022-10-16T20:13:39.844Z,12.90
2022-10-16T20:18:44.812Z,13.00
2022-10-16T20:23:51.757Z,12.90
2022-10-16T20:28:58.971Z,12.90
2022-10-16T20:34:12.428Z,13.00
2022-10-16T20:39:19.541Z,13.00
2022-10-16T20:44:26.562Z,13.00
2022-10-16T20:49:40.810Z,13.10
2022-10-16T20:54:42.611Z,13.00
2022-10-16T20:59:52.735Z,13.00
2022-10-16T21:05:00.215Z,12.80
2022-10-16T21:10:07.870Z,12.70
2022-10-16T21:15:15.536Z,12.80
2022-10-16T21:20:23.316Z,12.80
2022-10-16T21:25:30.910Z,12.90
2022-10-16T21:30:37.586Z,12.80
2022-10-16T21:35:44.591Z,12.80
2022-10-16T21:40:51.426Z,12.70
2022-10-16T21:45:58.401Z,12.70
2022-10-16T21:51:05.928Z,12.70
2022-10-16T21:56:20.771Z,12.50
2022-10-16T22:01:31.421Z,12.40
2022-10-16T22:06:38.460Z,12.50
2022-10-16T22:11:47.458Z,12.60
2022-10-16T22:16:54.365Z,12.60
2022-10-16T22:22:01.982Z,12.60
2022-10-16T22:27:08.956Z,12.60
2022-10-16T22:32:15.880Z,12.40
2022-10-16T22:37:22.945Z,12.50
2022-10-16T22:42:29.961Z,12.60
2022-10-16T22:47:37.236Z,12.60
2022-10-16T22:52:44.356Z,12.50
2022-10-16T22:57:51.482Z,12.40
2022-10-16T23:02:59.035Z,12.60
2022-10-16T23:08:06.087Z,12.60
2022-10-16T23:13:14.087Z,12.40
2022-10-16T23:18:21.171Z,12.30
2022-10-16T23:23:27.945Z,12.20
2022-10-16T23:28:35.037Z,12.20
2022-10-16T23:33:43.245Z,12.10
2022-10-16T23:38:51.960Z,12.20
2022-10-16T23:43:59.401Z,12.20
2022-10-16T23:49:06.532Z,12.30
2022-10-16T23:54:13.705Z,12.40
2022-10-16T23:59:20.577Z,12.40
